createdAt,value
2019-05-11T00:01:25.716Z,8.40
2019-05-11T00:03:54.558Z,8.20
2019-05-11T00:06:23.345Z,8.10
2019-05-11T00:08:52.474Z,7.85
2019-05-11T00:11:21.242Z,7.90
2019-05-11T00:13:50.123Z,7.42
2019-05-11T00:16:19.282Z,8.20
2019-05-11T00:18:48.271Z,7.65
2019-05-11T00:21:17.078Z,7.70
2019-05-11T00:23:46.175Z,8.15
2019-05-11T00:26:15.174Z,7.92
2019-05-11T00:28:43.966Z,7.55
2019-05-11T00:31:12.778Z,7.80
2019-05-11T00:33:41.791Z,7.30
2019-05-11T00:36:10.555Z,7.05
2019-05-11T00:38:39.375Z,7.47
2019-05-11T00:41:08.243Z,7.20
2019-05-11T00:43:37.142Z,7.17
2019-05-11T00:46:07.999Z,6.87
2019-05-11T00:48:36.799Z,6.85
2019-05-11T00:51:05.631Z,6.58
2019-05-11T00:53:34.596Z,6.62
2019-05-11T00:56:03.545Z,6.90
2019-05-11T00:58:32.493Z,6.60
2019-05-11T01:01:01.304Z,6.42
2019-05-11T01:03:30.174Z,6.15
2019-05-11T01:05:59.057Z,6.33
2019-05-11T01:08:27.998Z,6.30
2019-05-11T01:10:57.118Z,6.40
2019-05-11T01:13:26.373Z,6.22
2019-05-11T01:15:55.174Z,5.80
2019-05-11T01:18:24.070Z,6.35
2019-05-11T01:20:53.290Z,5.67
2019-05-11T01:23:22.074Z,5.60
2019-05-11T01:25:50.864Z,5.85
2019-05-11T01:28:19.711Z,5.90
2019-05-11T01:30:48.597Z,6.05
2019-05-11T01:33:17.387Z,6.47
2019-05-11T01:35:46.426Z,6.20
2019-05-11T01:38:15.328Z,6.35
2019-05-11T01:40:57.694Z,6.30
2019-05-11T01:43:14.923Z,6.40
2019-05-11T01:45:43.807Z,6.53
2019-05-11T01:48:12.634Z,6.83
2019-05-11T01:50:41.449Z,6.35
2019-05-11T01:53:10.730Z,6.70
2019-05-11T01:55:39.586Z,6.92
2019-05-11T01:58:08.419Z,7.08
2019-05-11T02:00:37.298Z,7.42
2019-05-11T02:03:06.180Z,7.37
2019-05-11T02:05:35.169Z,7.17
2019-05-11T02:08:04.169Z,6.95
2019-05-11T02:10:33.108Z,7.00
2019-05-11T02:13:01.966Z,7.08
2019-05-11T02:15:30.942Z,6.67
2019-05-11T02:17:59.834Z,7.90
2019-05-11T02:20:28.898Z,7.60
2019-05-11T02:22:57.988Z,7.58
2019-05-11T02:25:27.147Z,7.37
2019-05-11T02:27:56.270Z,7.25
2019-05-11T02:30:25.200Z,7.83
2019-05-11T02:32:53.962Z,7.90
2019-05-11T02:35:22.764Z,7.75
2019-05-11T02:37:51.603Z,7.40
2019-05-11T02:40:20.875Z,8.10
2019-05-11T02:42:49.724Z,8.15
2019-05-11T02:45:37.819Z,8.08
2019-05-11T02:48:06.696Z,8.48
2019-05-11T02:50:36.738Z,8.50
2019-05-11T02:53:05.753Z,8.20
2019-05-11T02:55:35.614Z,7.78
2019-05-11T02:58:05.914Z,7.55
2019-05-11T03:00:38.359Z,8.37
2019-05-11T03:03:07.313Z,8.43
2019-05-11T03:05:36.477Z,8.30
2019-05-11T03:08:05.459Z,8.15
2019-05-11T03:10:34.296Z,8.53
2019-05-11T03:13:03.152Z,8.25
2019-05-11T03:15:32.084Z,7.87
2019-05-11T03:18:01.211Z,8.13
2019-05-11T03:20:30.166Z,8.48
2019-05-11T03:22:59.083Z,8.30
2019-05-11T03:25:27.968Z,8.28
2019-05-11T03:27:56.974Z,8.33
2019-05-11T03:30:26.116Z,7.97
2019-05-11T03:32:54.998Z,8.40
2019-05-11T03:35:23.884Z,8.00
2019-05-11T03:37:53.046Z,8.28
2019-05-11T03:40:21.916Z,8.00
2019-05-11T03:42:50.776Z,8.27
2019-05-11T03:45:19.642Z,8.03
2019-05-11T03:47:48.499Z,7.87
2019-05-11T03:50:17.507Z,8.45
2019-05-11T03:52:46.383Z,8.15
2019-05-11T03:55:15.323Z,8.50
2019-05-11T03:57:44.392Z,8.08
2019-05-11T04:00:13.387Z,8.20
2019-05-11T04:02:42.277Z,7.90
2019-05-11T04:05:11.120Z,7.60
2019-05-11T04:07:40.150Z,7.60
2019-05-11T04:10:09.528Z,7.67
2019-05-11T04:12:38.364Z,7.47
2019-05-11T04:15:08.918Z,7.87
2019-05-11T04:17:37.775Z,8.07
2019-05-11T04:20:07.251Z,8.10
2019-05-11T04:22:36.114Z,8.40
2019-05-11T04:25:05.682Z,8.05
2019-05-11T04:27:34.486Z,8.15
2019-05-11T04:30:03.381Z,8.43
2019-05-11T04:32:32.199Z,8.33
2019-05-11T04:35:01.022Z,9.43
2019-05-11T04:37:29.790Z,8.60
2019-05-11T04:39:58.699Z,8.88
2019-05-11T04:42:27.548Z,8.73
2019-05-11T04:44:56.367Z,9.05
2019-05-11T04:47:25.170Z,8.63
2019-05-11T04:49:53.975Z,9.00
2019-05-11T04:52:22.793Z,8.18
2019-05-11T04:54:51.663Z,8.90
2019-05-11T04:57:20.451Z,8.43
2019-05-11T04:59:49.517Z,7.85
2019-05-11T05:02:18.303Z,8.20
2019-05-11T05:04:47.570Z,8.40
2019-05-11T05:07:16.746Z,8.53
2019-05-11T05:09:45.696Z,8.10
2019-05-11T05:12:15.685Z,7.90
2019-05-11T05:14:45.067Z,7.90
2019-05-11T05:17:13.862Z,8.05
2019-05-11T05:19:42.674Z,8.05
2019-05-11T05:22:11.990Z,8.25
2019-05-11T05:24:40.788Z,7.60
2019-05-11T05:27:10.123Z,8.28
2019-05-11T05:29:39.365Z,8.38
2019-05-11T05:32:08.531Z,8.43
2019-05-11T05:34:37.659Z,7.80
2019-05-11T05:37:06.519Z,7.80
2019-05-11T05:39:35.299Z,7.58
2019-05-11T05:42:04.119Z,7.50
2019-05-11T05:44:32.981Z,7.10
2019-05-11T05:47:01.836Z,7.22
2019-05-11T05:49:30.650Z,7.42
2019-05-11T05:51:59.451Z,6.90
2019-05-11T05:54:28.334Z,6.70
2019-05-11T05:56:57.527Z,6.47
2019-05-11T05:59:26.638Z,6.47
2019-05-11T06:01:55.539Z,6.37
2019-05-11T06:04:24.368Z,6.30
2019-05-11T06:06:53.407Z,6.63
2019-05-11T06:09:22.179Z,5.72
2019-05-11T06:11:51.043Z,6.90
2019-05-11T06:14:19.887Z,6.90
2019-05-11T06:16:48.805Z,7.67
2019-05-11T06:19:17.771Z,8.80
2019-05-11T06:21:46.574Z,9.05
2019-05-11T06:24:15.680Z,7.97
2019-05-11T06:26:44.514Z,6.03
2019-05-11T06:29:13.471Z,5.80
2019-05-11T06:31:42.612Z,4.90
2019-05-11T06:34:11.445Z,4.40
2019-05-11T06:36:40.202Z,4.42
2019-05-11T06:39:09.149Z,4.33
2019-05-11T06:41:38.076Z,4.42
2019-05-11T06:44:07.014Z,3.80
2019-05-11T06:46:35.777Z,3.52
2019-05-11T06:49:04.659Z,2.92
2019-05-11T06:51:33.794Z,3.00
2019-05-11T06:54:02.827Z,2.80
2019-05-11T06:56:31.607Z,2.70
2019-05-11T06:59:00.442Z,2.87
2019-05-11T07:01:29.221Z,2.90
2019-05-11T07:03:58.045Z,2.20
2019-05-11T07:06:30.333Z,2.52
2019-05-11T07:08:57.450Z,2.50
2019-05-11T07:11:26.416Z,2.50
2019-05-11T07:13:55.314Z,2.50
2019-05-11T07:16:24.191Z,2.50
2019-05-11T07:18:52.986Z,2.70
2019-05-11T07:21:21.961Z,2.33
2019-05-11T07:23:50.790Z,2.40
2019-05-11T07:26:19.758Z,2.02
2019-05-11T07:28:48.607Z,2.00
2019-05-11T07:31:17.483Z,2.00
2019-05-11T07:33:48.494Z,2.10
2019-05-11T07:36:17.787Z,1.92
2019-05-11T07:38:48.696Z,2.02
2019-05-11T07:41:17.709Z,2.00
2019-05-11T07:43:48.453Z,2.05
2019-05-11T07:46:18.351Z,2.00
2019-05-11T07:48:48.066Z,1.80
2019-05-11T07:51:18.259Z,1.80
2019-05-11T07:53:48.663Z,1.70
2019-05-11T07:56:18.714Z,1.90
2019-05-11T07:58:48.235Z,1.65
2019-05-11T08:01:18.912Z,1.60
2019-05-11T08:03:48.498Z,1.85
2019-05-11T08:06:18.321Z,1.80
2019-05-11T08:08:49.088Z,1.82
2019-05-11T08:11:18.402Z,1.70
2019-05-11T08:13:48.204Z,1.70
2019-05-11T08:16:18.563Z,1.70
2019-05-11T08:18:48.387Z,1.60
2019-05-11T08:21:17.978Z,1.70
2019-05-11T08:23:48.306Z,1.75
2019-05-11T08:26:19.066Z,1.60
2019-05-11T08:28:48.611Z,1.57
2019-05-11T08:31:18.674Z,1.60
2019-05-11T08:33:48.259Z,1.50
2019-05-11T08:36:18.376Z,1.80
2019-05-11T08:38:48.305Z,1.40
2019-05-11T08:41:18.425Z,1.62
2019-05-11T08:43:48.158Z,1.40
2019-05-11T08:46:18.498Z,1.60
2019-05-11T08:48:48.014Z,1.65
2019-05-11T08:51:18.729Z,1.50
2019-05-11T08:53:48.167Z,1.40
2019-05-11T08:56:18.853Z,1.60
2019-05-11T08:58:49.173Z,1.60
2019-05-11T09:01:18.606Z,1.32
2019-05-11T09:03:47.930Z,1.30
2019-05-11T09:06:17.893Z,1.37
2019-05-11T09:08:49.328Z,1.27
2019-05-11T09:11:19.111Z,1.30
2019-05-11T09:13:48.956Z,1.27
2019-05-11T09:16:19.019Z,1.57
2019-05-11T09:18:48.222Z,1.40
2019-05-11T09:21:19.013Z,1.40
2019-05-11T09:23:48.571Z,1.40
2019-05-11T09:26:18.351Z,1.22
2019-05-11T09:28:47.845Z,1.20
2019-05-11T09:31:18.633Z,1.25
2019-05-11T09:33:48.040Z,1.40
2019-05-11T09:36:18.040Z,1.40
2019-05-11T09:38:48.910Z,1.30
2019-05-11T09:41:18.298Z,1.15
2019-05-11T09:43:48.307Z,1.20
2019-05-11T09:46:18.780Z,1.10
2019-05-11T09:48:48.470Z,1.40
2019-05-11T09:51:18.425Z,1.30
2019-05-11T09:53:48.507Z,1.30
2019-05-11T09:56:18.276Z,1.10
2019-05-11T09:58:48.166Z,1.17
2019-05-11T10:01:18.264Z,1.22
2019-05-11T10:03:48.279Z,1.35
2019-05-11T10:06:18.981Z,1.20
2019-05-11T10:08:48.678Z,1.30
2019-05-11T10:11:19.055Z,1.20
2019-05-11T10:13:48.460Z,1.37
2019-05-11T10:16:18.042Z,1.20
2019-05-11T10:18:49.237Z,1.20
2019-05-11T10:21:18.854Z,1.30
2019-05-11T10:23:48.873Z,1.50
2019-05-11T10:26:18.955Z,1.40
2019-05-11T10:28:48.399Z,1.62
2019-05-11T10:31:18.105Z,1.55
2019-05-11T10:33:48.956Z,1.60
2019-05-11T10:36:18.798Z,1.70
2019-05-11T10:38:48.854Z,1.70
2019-05-11T10:41:18.473Z,1.45
2019-05-11T10:43:48.990Z,1.55
2019-05-11T10:46:23.060Z,1.60
2019-05-11T10:48:48.698Z,1.80
2019-05-11T10:51:18.461Z,1.70
2019-05-11T10:53:51.619Z,1.67
2019-05-11T10:56:18.147Z,1.77
2019-05-11T10:58:48.188Z,1.80
2019-05-11T11:01:18.226Z,1.75
2019-05-11T11:03:48.335Z,1.80
2019-05-11T11:06:18.814Z,1.80
2019-05-11T11:08:48.643Z,1.90
2019-05-11T11:11:18.664Z,1.80
2019-05-11T11:13:48.118Z,2.00
2019-05-11T11:16:32.802Z,1.90
2019-05-11T11:18:48.676Z,1.87
2019-05-11T11:21:22.630Z,1.90
2019-05-11T11:23:48.343Z,1.70
2019-05-11T11:26:25.087Z,1.82
2019-05-11T11:28:53.899Z,1.90
2019-05-11T11:31:22.696Z,1.65
2019-05-11T11:33:51.775Z,2.02
2019-05-11T11:36:20.606Z,1.70
2019-05-11T11:38:49.456Z,1.67
2019-05-11T11:41:18.804Z,1.77
2019-05-11T11:43:48.402Z,2.00
2019-05-11T11:46:18.788Z,1.92
2019-05-11T11:48:49.206Z,1.95
2019-05-11T11:51:18.865Z,1.55
2019-05-11T11:53:48.180Z,1.57
2019-05-11T11:56:19.175Z,1.70
2019-05-11T11:58:48.811Z,1.60
2019-05-11T12:01:19.014Z,1.50
2019-05-11T12:03:49.003Z,1.40
2019-05-11T12:06:18.335Z,1.50
2019-05-11T12:08:49.684Z,1.40
2019-05-11T12:11:18.956Z,1.50
2019-05-11T12:13:47.956Z,1.50
2019-05-11T12:16:18.130Z,1.65
2019-05-11T12:18:48.644Z,1.40
2019-05-11T12:21:18.563Z,1.40
2019-05-11T12:23:48.557Z,1.55
2019-05-11T12:26:18.030Z,1.40
2019-05-11T12:28:48.982Z,1.45
2019-05-11T12:31:18.429Z,1.30
2019-05-11T12:33:48.503Z,1.47
2019-05-11T12:36:18.704Z,1.32
2019-05-11T12:38:48.865Z,1.50
2019-05-11T12:41:18.990Z,1.42
2019-05-11T12:43:49.064Z,1.40
2019-05-11T12:46:18.962Z,1.62
2019-05-11T12:48:48.803Z,1.60
2019-05-11T12:51:18.664Z,1.50
2019-05-11T12:53:47.934Z,1.57
2019-05-11T12:56:18.983Z,1.60
2019-05-11T12:58:49.145Z,1.50
2019-05-11T13:01:18.847Z,1.40
2019-05-11T13:03:49.529Z,1.40
2019-05-11T13:06:19.223Z,1.22
2019-05-11T13:08:48.402Z,1.40
2019-05-11T13:11:18.674Z,1.40
2019-05-11T13:13:48.400Z,1.27
2019-05-11T13:16:18.372Z,1.40
2019-05-11T13:18:48.736Z,1.60
2019-05-11T13:21:18.365Z,1.70
2019-05-11T13:23:48.927Z,1.40
2019-05-11T13:26:18.259Z,1.30
2019-05-11T13:28:48.452Z,1.40
2019-05-11T13:31:18.740Z,1.30
2019-05-11T13:33:48.280Z,1.50
2019-05-11T13:36:18.539Z,1.37
2019-05-11T13:38:48.288Z,1.42
2019-05-11T13:41:18.741Z,1.32
2019-05-11T13:43:48.847Z,1.30
2019-05-11T13:46:18.169Z,1.15
2019-05-11T13:48:47.739Z,1.20
2019-05-11T13:51:18.194Z,1.25
2019-05-11T13:53:48.169Z,1.10
2019-05-11T13:56:18.318Z,0.90
2019-05-11T13:58:48.842Z,1.10
2019-05-11T14:01:18.401Z,1.10
2019-05-11T14:03:48.325Z,1.42
2019-05-11T14:06:18.493Z,1.40
2019-05-11T14:11:18.468Z,1.22
2019-05-11T14:13:48.178Z,1.30
2019-05-11T14:16:18.558Z,1.10
2019-05-11T14:18:48.855Z,1.10
2019-05-11T14:21:18.641Z,1.30
2019-05-11T14:23:48.406Z,1.07
2019-05-11T14:26:19.159Z,1.05
2019-05-11T14:28:48.278Z,1.00
2019-05-11T14:31:18.871Z,1.00
2019-05-11T14:32:21.068Z,1.20
2019-05-11T14:33:48.843Z,1.10
2019-05-11T14:36:18.589Z,1.00
2019-05-11T14:38:48.705Z,1.20
2019-05-11T14:41:18.349Z,1.07
2019-05-11T14:43:49.037Z,0.90
2019-05-11T14:46:18.280Z,1.05
2019-05-11T14:48:48.170Z,0.88
2019-05-11T14:51:18.038Z,0.90
2019-05-11T14:53:48.215Z,1.07
2019-05-11T14:56:18.946Z,1.10
2019-05-11T14:58:49.209Z,0.90
2019-05-11T15:01:18.572Z,0.85
2019-05-11T15:03:48.683Z,0.93
2019-05-11T15:06:18.804Z,1.10
2019-05-11T15:08:48.379Z,1.10
2019-05-11T15:11:19.189Z,1.12
2019-05-11T15:13:48.840Z,1.22
2019-05-11T15:16:18.707Z,1.10
2019-05-11T15:18:48.598Z,1.10
2019-05-11T15:21:18.958Z,1.00
2019-05-11T15:23:48.351Z,1.10
2019-05-11T15:26:18.683Z,1.10
2019-05-11T15:28:48.686Z,0.93
2019-05-11T15:31:22.152Z,1.20
2019-05-11T15:33:49.021Z,1.10
2019-05-11T15:36:19.336Z,1.10
2019-05-11T15:38:48.679Z,1.20
2019-05-11T15:41:17.878Z,1.27
2019-05-11T15:43:47.952Z,1.37
2019-05-11T15:46:19.575Z,1.10
2019-05-11T15:48:57.838Z,1.60
2019-05-11T15:51:18.878Z,1.52
2019-05-11T15:53:50.259Z,1.40
2019-05-11T15:56:18.984Z,1.80
2019-05-11T15:58:48.553Z,1.30
2019-05-11T16:01:18.572Z,1.60
2019-05-11T16:03:49.992Z,1.40
2019-05-11T16:06:18.724Z,1.57
2019-05-11T16:08:47.704Z,1.80
2019-05-11T16:11:18.120Z,1.60
2019-05-11T16:13:48.392Z,1.60
2019-05-11T16:16:17.487Z,1.60
2019-05-11T16:18:48.381Z,1.65
2019-05-11T16:21:18.176Z,1.50
2019-05-11T16:23:47.955Z,1.72
2019-05-11T16:26:17.609Z,1.10
2019-05-11T16:28:47.698Z,1.20
2019-05-11T16:31:17.993Z,0.90
2019-05-11T16:33:48.427Z,0.80
2019-05-11T16:36:18.009Z,0.88
2019-05-11T16:38:48.335Z,1.20
2019-05-11T16:41:18.272Z,1.25
2019-05-11T16:43:48.037Z,0.90
2019-05-11T16:46:17.719Z,0.80
2019-05-11T16:48:46.668Z,1.00
2019-05-11T16:51:17.601Z,1.10
2019-05-11T16:53:47.943Z,1.02
2019-05-11T16:56:16.583Z,1.25
2019-05-11T16:58:48.490Z,1.30
2019-05-11T17:01:18.821Z,1.00
2019-05-11T17:03:48.214Z,1.10
2019-05-11T17:06:19.526Z,1.30
2019-05-11T17:08:48.693Z,1.30
2019-05-11T17:11:18.611Z,1.30
2019-05-11T17:13:48.468Z,1.50
2019-05-11T17:16:17.908Z,1.47
2019-05-11T17:18:48.430Z,1.22
2019-05-11T17:21:18.367Z,1.40
2019-05-11T17:23:48.773Z,1.30
2019-05-11T17:26:18.971Z,1.25
2019-05-11T17:28:48.970Z,1.30
2019-05-11T17:31:18.808Z,1.27
2019-05-11T17:33:47.892Z,1.45
2019-05-11T17:36:18.701Z,1.60
2019-05-11T17:38:47.999Z,1.50
2019-05-11T17:41:16.918Z,1.60
2019-05-11T17:43:47.835Z,1.65
2019-05-11T17:46:18.425Z,1.80
2019-05-11T17:48:47.148Z,1.35
2019-05-11T17:51:21.857Z,1.52
2019-05-11T17:53:48.268Z,1.80
2019-05-11T17:56:17.162Z,1.30
2019-05-11T17:58:48.171Z,1.57
2019-05-11T18:01:18.688Z,1.20
2019-05-11T18:03:47.595Z,1.40
2019-05-11T18:06:18.444Z,1.50
2019-05-11T18:08:47.914Z,1.77
2019-05-11T18:11:18.537Z,1.82
2019-05-11T18:13:48.232Z,2.00
2019-05-11T18:16:18.682Z,1.80
2019-05-11T18:18:48.384Z,2.00
2019-05-11T18:21:18.900Z,2.10
2019-05-11T18:23:48.204Z,2.50
2019-05-11T18:26:18.109Z,2.55
2019-05-11T18:28:48.267Z,2.60
2019-05-11T18:31:18.123Z,2.87
2019-05-11T18:33:48.721Z,2.60
2019-05-11T18:36:18.329Z,2.60
2019-05-11T18:38:48.744Z,3.40
2019-05-11T18:41:17.810Z,3.27
2019-05-11T18:43:48.328Z,3.17
2019-05-11T18:46:17.325Z,3.30
2019-05-11T18:48:48.531Z,2.90
2019-05-11T18:51:17.045Z,3.10
2019-05-11T18:53:48.228Z,2.75
2019-05-11T18:56:18.142Z,2.87
2019-05-11T18:58:47.773Z,3.10
2019-05-11T19:01:17.833Z,2.77
2019-05-11T19:03:47.841Z,2.90
2019-05-11T19:06:18.413Z,3.40
2019-05-11T19:08:51.034Z,3.20
2019-05-11T19:11:19.815Z,3.08
2019-05-11T19:13:48.661Z,2.90
2019-05-11T19:16:18.751Z,3.00
2019-05-11T19:18:48.091Z,3.23
2019-05-11T19:21:17.987Z,2.90
2019-05-11T19:23:48.655Z,2.87
2019-05-11T19:26:18.270Z,2.92
2019-05-11T19:28:47.222Z,2.60
2019-05-11T19:31:18.917Z,3.45
2019-05-11T19:33:48.745Z,3.60
2019-05-11T19:36:17.098Z,4.03
2019-05-11T19:38:47.875Z,3.80
2019-05-11T19:41:18.539Z,3.77
2019-05-11T19:43:48.608Z,4.20
2019-05-11T19:46:18.369Z,4.20
2019-05-11T19:48:47.555Z,4.00
2019-05-11T19:51:18.292Z,3.92
2019-05-11T19:53:48.376Z,3.65
2019-05-11T19:56:18.280Z,3.58
2019-05-11T19:58:48.525Z,3.27
2019-05-11T20:01:18.803Z,3.67
2019-05-11T20:03:47.842Z,3.90
2019-05-11T20:06:16.702Z,3.20
2019-05-11T20:08:45.502Z,2.70
2019-05-11T20:11:14.338Z,3.45
2019-05-11T20:13:43.548Z,3.72
2019-05-11T20:16:12.348Z,4.40
2019-05-11T20:18:41.140Z,4.78
2019-05-11T20:21:19.319Z,3.70
2019-05-11T20:23:40.507Z,4.90
2019-05-11T20:26:09.330Z,4.73
2019-05-11T20:28:38.119Z,3.70
2019-05-11T20:31:08.035Z,3.15
2019-05-11T20:33:38.582Z,3.15
2019-05-11T20:36:08.703Z,3.55
2019-05-11T20:38:38.403Z,3.52
2019-05-11T20:41:08.386Z,3.40
2019-05-11T20:43:37.352Z,3.50
2019-05-11T20:46:08.210Z,3.40
2019-05-11T20:48:38.238Z,2.85
2019-05-11T20:51:08.096Z,2.77
2019-05-11T20:53:38.750Z,2.70
2019-05-11T20:56:08.676Z,2.00
2019-05-11T20:58:58.776Z,2.08
2019-05-11T21:01:28.662Z,1.80
2019-05-11T21:03:58.875Z,1.87
2019-05-11T21:06:29.552Z,1.75
2019-05-11T21:08:58.366Z,2.00
2019-05-11T21:11:27.158Z,2.10
2019-05-11T21:13:55.993Z,2.37
2019-05-11T21:16:24.782Z,2.40
2019-05-11T21:18:53.560Z,2.70
2019-05-11T21:21:22.524Z,3.12
2019-05-11T21:23:51.310Z,2.72
2019-05-11T21:26:20.157Z,3.10
2019-05-11T21:28:48.960Z,3.00
2019-05-11T21:31:18.592Z,2.72
2019-05-11T21:33:47.605Z,2.80
2019-05-11T21:36:17.975Z,2.90
2019-05-11T21:38:48.173Z,2.70
2019-05-11T21:41:17.351Z,3.00
2019-05-11T21:43:48.196Z,2.90
2019-05-11T21:46:18.065Z,3.12
2019-05-11T21:48:47.850Z,2.90
2019-05-11T21:51:18.120Z,3.00
2019-05-11T21:53:48.706Z,2.85
2019-05-11T21:56:18.736Z,2.90
2019-05-11T21:58:47.973Z,3.10
2019-05-11T22:01:18.417Z,3.27
2019-05-11T22:03:47.996Z,3.40
2019-05-11T22:06:16.934Z,4.10
2019-05-11T22:08:48.255Z,4.30
2019-05-11T22:11:17.965Z,4.10
2019-05-11T22:13:48.433Z,4.10
2019-05-11T22:16:17.510Z,4.47
2019-05-11T22:18:48.395Z,4.70
2019-05-11T22:21:18.761Z,4.90
2019-05-11T22:23:50.419Z,5.10
2019-05-11T22:26:18.070Z,5.03
2019-05-11T22:28:48.260Z,4.97
2019-05-11T22:31:18.211Z,5.20
2019-05-11T22:33:48.040Z,5.40
2019-05-11T22:36:16.947Z,5.90
2019-05-11T22:38:48.124Z,6.05
2019-05-11T22:41:18.009Z,5.90
2019-05-11T22:43:48.559Z,6.30
2019-05-11T22:46:17.736Z,6.60
2019-05-11T22:48:48.911Z,6.30
2019-05-11T22:51:18.348Z,7.20
2019-05-11T22:53:50.202Z,6.95
2019-05-11T22:56:20.071Z,7.00
2019-05-11T22:58:49.989Z,7.10
2019-05-11T23:01:18.878Z,7.50
2019-05-11T23:03:47.694Z,6.78
2019-05-11T23:06:18.041Z,7.10
2019-05-11T23:08:48.332Z,7.15
2019-05-11T23:11:18.195Z,6.70
2019-05-11T23:13:47.855Z,6.75
2019-05-11T23:16:18.055Z,6.45
2019-05-11T23:18:48.091Z,5.95
2019-05-11T23:21:17.142Z,6.00
2019-05-11T23:23:47.857Z,5.47
2019-05-11T23:26:17.789Z,5.45
2019-05-11T23:28:48.650Z,4.80
2019-05-11T23:31:17.599Z,3.30
2019-05-11T23:33:46.488Z,3.20
2019-05-11T23:36:15.354Z,2.12
2019-05-11T23:38:44.235Z,1.30
2019-05-11T23:41:24.099Z,1.55
2019-05-11T23:43:43.627Z,1.45
2019-05-11T23:46:12.419Z,1.50
2019-05-11T23:48:41.260Z,1.50
2019-05-11T23:51:10.223Z,1.60
2019-05-11T23:53:39.038Z,1.50
2019-05-11T23:56:07.879Z,1.50
2019-05-11T23:58:38.968Z,1.30
